sensor_id;sensor_type;location;lat;lon;timestamp;P1;durP1;ratioP1;P2;durP2;ratioP2
20844;SDS011;10583;49.084;8.646;2023-03-26T00:01:07;1.30;;;1.30;;
20844;SDS011;10583;49.084;8.646;2023-03-26T00:03:38;1.57;;;1.57;;
20844;SDS011;10583;49.084;8.646;2023-03-26T00:06:07;1.37;;;1.37;;
20844;SDS011;10583;49.084;8.646;2023-03-26T00:08:35;1.80;;;1.80;;
20844;SDS011;10583;49.084;8.646;2023-03-26T00:11:03;1.77;;;1.77;;
20844;SDS011;10583;49.084;8.646;2023-03-26T00:13:31;1.67;;;1.67;;
20844;SDS011;10583;49.084;8.646;2023-03-26T00:15:58;1.60;;;1.60;;
20844;SDS011;10583;49.084;8.646;2023-03-26T00:18:27;1.50;;;1.50;;
20844;SDS011;10583;49.084;8.646;2023-03-26T00:20:55;1.93;;;1.93;;
20844;SDS011;10583;49.084;8.646;2023-03-26T00:23:22;2.03;;;2.03;;
20844;SDS011;10583;49.084;8.646;2023-03-26T00:25:51;1.90;;;1.90;;
20844;SDS011;10583;49.084;8.646;2023-03-26T00:28:18;1.43;;;1.43;;
20844;SDS011;10583;49.084;8.646;2023-03-26T00:30:45;1.80;;;1.80;;
20844;SDS011;10583;49.084;8.646;2023-03-26T00:33:12;1.40;;;1.40;;
20844;SDS011;10583;49.084;8.646;2023-03-26T00:35:50;1.40;;;1.40;;
20844;SDS011;10583;49.084;8.646;2023-03-26T00:38:18;1.80;;;1.80;;
20844;SDS011;10583;49.084;8.646;2023-03-26T00:40:46;1.77;;;1.77;;
20844;SDS011;10583;49.084;8.646;2023-03-26T00:43:15;2.20;;;2.20;;
20844;SDS011;10583;49.084;8.646;2023-03-26T00:45:44;1.93;;;1.93;;
20844;SDS011;10583;49.084;8.646;2023-03-26T00:48:11;1.43;;;1.43;;
20844;SDS011;10583;49.084;8.646;2023-03-26T00:50:38;1.60;;;1.60;;
20844;SDS011;10583;49.084;8.646;2023-03-26T00:53:08;1.60;;;1.60;;
20844;SDS011;10583;49.084;8.646;2023-03-26T00:55:37;1.60;;;1.60;;
20844;SDS011;10583;49.084;8.646;2023-03-26T00:58:05;1.73;;;1.73;;
20844;SDS011;10583;49.084;8.646;2023-03-26T01:00:34;1.80;;;1.80;;
20844;SDS011;10583;49.084;8.646;2023-03-26T01:03:04;1.60;;;1.60;;
20844;SDS011;10583;49.084;8.646;2023-03-26T01:08:25;1.60;;;1.60;;
20844;SDS011;10583;49.084;8.646;2023-03-26T01:10:55;1.93;;;1.93;;
20844;SDS011;10583;49.084;8.646;2023-03-26T01:13:29;1.90;;;1.90;;
20844;SDS011;10583;49.084;8.646;2023-03-26T01:15:58;1.80;;;1.80;;
20844;SDS011;10583;49.084;8.646;2023-03-26T01:18:26;1.90;;;1.90;;
20844;SDS011;10583;49.084;8.646;2023-03-26T01:20:58;2.20;;;2.20;;
20844;SDS011;10583;49.084;8.646;2023-03-26T01:23:36;1.97;;;1.97;;
20844;SDS011;10583;49.084;8.646;2023-03-26T01:26:10;1.77;;;1.77;;
20844;SDS011;10583;49.084;8.646;2023-03-26T01:28:43;2.07;;;2.07;;
20844;SDS011;10583;49.084;8.646;2023-03-26T01:31:11;1.93;;;1.93;;
20844;SDS011;10583;49.084;8.646;2023-03-26T01:33:46;1.90;;;1.90;;
20844;SDS011;10583;49.084;8.646;2023-03-26T01:36:19;1.70;;;1.70;;
20844;SDS011;10583;49.084;8.646;2023-03-26T01:38:52;1.97;;;1.97;;
20844;SDS011;10583;49.084;8.646;2023-03-26T01:41:28;1.63;;;1.63;;
20844;SDS011;10583;49.084;8.646;2023-03-26T01:43:59;2.10;;;2.10;;
20844;SDS011;10583;49.084;8.646;2023-03-26T01:46:30;2.60;;;2.60;;
20844;SDS011;10583;49.084;8.646;2023-03-26T01:49:00;2.23;;;2.23;;
20844;SDS011;10583;49.084;8.646;2023-03-26T01:51:28;2.33;;;2.33;;
20844;SDS011;10583;49.084;8.646;2023-03-26T01:53:56;2.77;;;2.77;;
20844;SDS011;10583;49.084;8.646;2023-03-26T01:56:24;2.40;;;2.40;;
20844;SDS011;10583;49.084;8.646;2023-03-26T01:59:03;2.50;;;2.50;;
20844;SDS011;10583;49.084;8.646;2023-03-26T02:01:38;2.67;;;2.67;;
20844;SDS011;10583;49.084;8.646;2023-03-26T02:04:11;2.30;;;2.30;;
20844;SDS011;10583;49.084;8.646;2023-03-26T02:06:44;2.33;;;2.33;;
20844;SDS011;10583;49.084;8.646;2023-03-26T02:09:15;2.27;;;2.27;;
20844;SDS011;10583;49.084;8.646;2023-03-26T02:11:49;2.27;;;2.27;;
20844;SDS011;10583;49.084;8.646;2023-03-26T02:14:16;1.90;;;1.90;;
20844;SDS011;10583;49.084;8.646;2023-03-26T02:16:43;2.10;;;2.10;;
20844;SDS011;10583;49.084;8.646;2023-03-26T02:19:11;2.10;;;2.10;;
20844;SDS011;10583;49.084;8.646;2023-03-26T02:21:40;1.83;;;1.83;;
20844;SDS011;10583;49.084;8.646;2023-03-26T02:24:07;2.00;;;2.00;;
20844;SDS011;10583;49.084;8.646;2023-03-26T02:26:34;1.60;;;1.60;;
20844;SDS011;10583;49.084;8.646;2023-03-26T02:29:03;1.63;;;1.63;;
20844;SDS011;10583;49.084;8.646;2023-03-26T02:31:30;2.00;;;2.00;;
20844;SDS011;10583;49.084;8.646;2023-03-26T02:33:57;2.17;;;2.17;;
20844;SDS011;10583;49.084;8.646;2023-03-26T02:36:23;1.83;;;1.83;;
20844;SDS011;10583;49.084;8.646;2023-03-26T02:38:52;1.70;;;1.70;;
20844;SDS011;10583;49.084;8.646;2023-03-26T02:41:21;1.60;;;1.60;;
20844;SDS011;10583;49.084;8.646;2023-03-26T02:43:48;2.03;;;2.03;;
20844;SDS011;10583;49.084;8.646;2023-03-26T02:46:16;2.10;;;2.10;;
20844;SDS011;10583;49.084;8.646;2023-03-26T02:48:43;2.53;;;2.53;;
20844;SDS011;10583;49.084;8.646;2023-03-26T02:51:10;1.93;;;1.93;;
20844;SDS011;10583;49.084;8.646;2023-03-26T02:53:37;1.87;;;1.87;;
20844;SDS011;10583;49.084;8.646;2023-03-26T02:56:05;1.80;;;1.80;;
20844;SDS011;10583;49.084;8.646;2023-03-26T02:58:32;1.80;;;1.80;;
20844;SDS011;10583;49.084;8.646;2023-03-26T03:00:58;2.00;;;2.00;;
20844;SDS011;10583;49.084;8.646;2023-03-26T03:03:28;2.13;;;2.13;;
20844;SDS011;10583;49.084;8.646;2023-03-26T03:05:55;2.43;;;2.43;;
20844;SDS011;10583;49.084;8.646;2023-03-26T03:08:23;2.30;;;2.30;;
20844;SDS011;10583;49.084;8.646;2023-03-26T03:10:56;2.20;;;2.20;;
20844;SDS011;10583;49.084;8.646;2023-03-26T03:13:24;2.20;;;2.20;;
20844;SDS011;10583;49.084;8.646;2023-03-26T03:15:51;2.30;;;2.30;;
20844;SDS011;10583;49.084;8.646;2023-03-26T03:18:18;1.90;;;1.90;;
20844;SDS011;10583;49.084;8.646;2023-03-26T03:20:46;1.97;;;1.97;;
20844;SDS011;10583;49.084;8.646;2023-03-26T03:23:13;2.30;;;2.30;;
20844;SDS011;10583;49.084;8.646;2023-03-26T03:25:40;2.40;;;2.40;;
20844;SDS011;10583;49.084;8.646;2023-03-26T03:28:08;2.30;;;2.30;;
20844;SDS011;10583;49.084;8.646;2023-03-26T03:30:35;2.30;;;2.30;;
20844;SDS011;10583;49.084;8.646;2023-03-26T03:33:02;2.40;;;2.40;;
20844;SDS011;10583;49.084;8.646;2023-03-26T03:35:30;2.50;;;2.50;;
20844;SDS011;10583;49.084;8.646;2023-03-26T03:37:58;1.70;;;1.70;;
20844;SDS011;10583;49.084;8.646;2023-03-26T03:40:26;2.07;;;2.07;;
20844;SDS011;10583;49.084;8.646;2023-03-26T03:42:52;2.70;;;2.70;;
20844;SDS011;10583;49.084;8.646;2023-03-26T03:45:19;2.30;;;2.30;;
20844;SDS011;10583;49.084;8.646;2023-03-26T03:47:46;2.60;;;2.60;;
20844;SDS011;10583;49.084;8.646;2023-03-26T03:50:13;2.30;;;2.30;;
20844;SDS011;10583;49.084;8.646;2023-03-26T03:52:40;2.53;;;2.53;;
20844;SDS011;10583;49.084;8.646;2023-03-26T03:55:08;2.37;;;2.37;;
20844;SDS011;10583;49.084;8.646;2023-03-26T03:57:35;2.90;;;2.90;;
20844;SDS011;10583;49.084;8.646;2023-03-26T04:00:02;2.60;;;2.60;;
20844;SDS011;10583;49.084;8.646;2023-03-26T04:02:33;2.50;;;2.50;;
20844;SDS011;10583;49.084;8.646;2023-03-26T04:05:00;1.93;;;1.93;;
20844;SDS011;10583;49.084;8.646;2023-03-26T04:07:28;2.30;;;2.30;;
20844;SDS011;10583;49.084;8.646;2023-03-26T04:09:56;2.27;;;2.27;;
20844;SDS011;10583;49.084;8.646;2023-03-26T04:12:25;2.27;;;2.27;;
20844;SDS011;10583;49.084;8.646;2023-03-26T04:14:52;2.87;;;2.87;;
20844;SDS011;10583;49.084;8.646;2023-03-26T04:17:18;2.80;;;2.80;;
20844;SDS011;10583;49.084;8.646;2023-03-26T04:19:46;2.27;;;2.27;;
20844;SDS011;10583;49.084;8.646;2023-03-26T04:22:14;2.13;;;2.13;;
20844;SDS011;10583;49.084;8.646;2023-03-26T04:24:43;2.33;;;2.33;;
20844;SDS011;10583;49.084;8.646;2023-03-26T04:27:10;2.40;;;2.40;;
20844;SDS011;10583;49.084;8.646;2023-03-26T04:29:43;2.57;;;2.57;;
20844;SDS011;10583;49.084;8.646;2023-03-26T04:32:14;2.73;;;2.73;;
20844;SDS011;10583;49.084;8.646;2023-03-26T04:34:45;2.80;;;2.80;;
20844;SDS011;10583;49.084;8.646;2023-03-26T04:37:13;2.67;;;2.67;;
20844;SDS011;10583;49.084;8.646;2023-03-26T04:39:48;2.63;;;2.63;;
20844;SDS011;10583;49.084;8.646;2023-03-26T04:42:15;2.20;;;2.20;;
20844;SDS011;10583;49.084;8.646;2023-03-26T04:44:45;2.57;;;2.57;;
20844;SDS011;10583;49.084;8.646;2023-03-26T04:47:14;2.80;;;2.80;;
20844;SDS011;10583;49.084;8.646;2023-03-26T04:49:42;2.50;;;2.50;;
20844;SDS011;10583;49.084;8.646;2023-03-26T04:52:08;2.40;;;2.40;;
20844;SDS011;10583;49.084;8.646;2023-03-26T04:54:36;2.77;;;2.77;;
20844;SDS011;10583;49.084;8.646;2023-03-26T04:57:04;2.23;;;2.23;;
20844;SDS011;10583;49.084;8.646;2023-03-26T04:59:34;2.10;;;2.10;;
20844;SDS011;10583;49.084;8.646;2023-03-26T05:02:03;2.57;;;2.57;;
20844;SDS011;10583;49.084;8.646;2023-03-26T05:04:32;2.70;;;2.70;;
20844;SDS011;10583;49.084;8.646;2023-03-26T05:07:00;2.63;;;2.63;;
20844;SDS011;10583;49.084;8.646;2023-03-26T05:09:28;1.90;;;1.90;;
20844;SDS011;10583;49.084;8.646;2023-03-26T05:11:54;1.80;;;1.80;;
20844;SDS011;10583;49.084;8.646;2023-03-26T05:14:22;2.10;;;2.10;;
20844;SDS011;10583;49.084;8.646;2023-03-26T05:16:49;2.00;;;2.00;;
20844;SDS011;10583;49.084;8.646;2023-03-26T05:19:19;1.93;;;1.93;;
20844;SDS011;10583;49.084;8.646;2023-03-26T05:21:46;1.80;;;1.80;;
20844;SDS011;10583;49.084;8.646;2023-03-26T05:24:12;2.07;;;2.07;;
20844;SDS011;10583;49.084;8.646;2023-03-26T05:26:39;1.80;;;1.80;;
20844;SDS011;10583;49.084;8.646;2023-03-26T05:29:06;2.00;;;2.00;;
20844;SDS011;10583;49.084;8.646;2023-03-26T05:31:33;2.20;;;2.20;;
20844;SDS011;10583;49.084;8.646;2023-03-26T05:33:59;1.90;;;1.90;;
20844;SDS011;10583;49.084;8.646;2023-03-26T05:36:27;2.63;;;2.63;;
20844;SDS011;10583;49.084;8.646;2023-03-26T05:38:54;2.60;;;2.60;;
20844;SDS011;10583;49.084;8.646;2023-03-26T05:41:21;2.40;;;2.40;;
20844;SDS011;10583;49.084;8.646;2023-03-26T05:43:48;7.77;;;7.77;;
20844;SDS011;10583;49.084;8.646;2023-03-26T05:46:15;4.30;;;4.30;;
20844;SDS011;10583;49.084;8.646;2023-03-26T05:48:41;3.67;;;3.67;;
20844;SDS011;10583;49.084;8.646;2023-03-26T05:51:08;2.87;;;2.87;;
20844;SDS011;10583;49.084;8.646;2023-03-26T05:53:37;1.87;;;1.87;;
20844;SDS011;10583;49.084;8.646;2023-03-26T05:56:05;2.10;;;2.10;;
20844;SDS011;10583;49.084;8.646;2023-03-26T05:58:32;1.90;;;1.90;;
20844;SDS011;10583;49.084;8.646;2023-03-26T06:01:01;1.90;;;1.90;;
20844;SDS011;10583;49.084;8.646;2023-03-26T06:03:30;2.37;;;2.37;;
20844;SDS011;10583;49.084;8.646;2023-03-26T06:05:56;2.03;;;2.03;;
20844;SDS011;10583;49.084;8.646;2023-03-26T06:08:24;2.23;;;2.23;;
20844;SDS011;10583;49.084;8.646;2023-03-26T06:10:57;2.20;;;2.20;;
20844;SDS011;10583;49.084;8.646;2023-03-26T06:13:25;2.50;;;2.50;;
20844;SDS011;10583;49.084;8.646;2023-03-26T06:15:52;2.03;;;2.03;;
20844;SDS011;10583;49.084;8.646;2023-03-26T06:18:19;2.00;;;2.00;;
20844;SDS011;10583;49.084;8.646;2023-03-26T06:20:46;2.10;;;2.10;;
20844;SDS011;10583;49.084;8.646;2023-03-26T06:23:13;2.13;;;2.13;;
20844;SDS011;10583;49.084;8.646;2023-03-26T06:25:40;1.87;;;1.87;;
20844;SDS011;10583;49.084;8.646;2023-03-26T06:28:09;2.20;;;2.20;;
20844;SDS011;10583;49.084;8.646;2023-03-26T06:30:36;1.93;;;1.93;;
20844;SDS011;10583;49.084;8.646;2023-03-26T06:33:03;1.87;;;1.87;;
20844;SDS011;10583;49.084;8.646;2023-03-26T06:35:31;2.10;;;2.10;;
20844;SDS011;10583;49.084;8.646;2023-03-26T06:37:58;1.87;;;1.87;;
20844;SDS011;10583;49.084;8.646;2023-03-26T06:40:25;2.23;;;2.23;;
20844;SDS011;10583;49.084;8.646;2023-03-26T06:42:52;1.97;;;1.97;;
20844;SDS011;10583;49.084;8.646;2023-03-26T06:45:22;1.77;;;1.77;;
20844;SDS011;10583;49.084;8.646;2023-03-26T06:47:49;2.20;;;2.20;;
20844;SDS011;10583;49.084;8.646;2023-03-26T06:50:16;2.37;;;2.37;;
20844;SDS011;10583;49.084;8.646;2023-03-26T06:52:43;1.73;;;1.73;;
20844;SDS011;10583;49.084;8.646;2023-03-26T06:55:09;2.40;;;2.40;;
20844;SDS011;10583;49.084;8.646;2023-03-26T06:57:36;2.07;;;2.07;;
20844;SDS011;10583;49.084;8.646;2023-03-26T07:00:04;1.80;;;1.80;;
20844;SDS011;10583;49.084;8.646;2023-03-26T07:02:34;2.30;;;2.30;;
20844;SDS011;10583;49.084;8.646;2023-03-26T07:05:01;1.93;;;1.93;;
20844;SDS011;10583;49.084;8.646;2023-03-26T07:07:28;2.00;;;2.00;;
20844;SDS011;10583;49.084;8.646;2023-03-26T07:09:55;2.20;;;2.20;;
20844;SDS011;10583;49.084;8.646;2023-03-26T07:12:22;2.77;;;2.77;;
20844;SDS011;10583;49.084;8.646;2023-03-26T07:14:48;2.10;;;2.10;;
20844;SDS011;10583;49.084;8.646;2023-03-26T07:17:17;2.90;;;2.90;;
20844;SDS011;10583;49.084;8.646;2023-03-26T07:19:45;2.07;;;2.07;;
20844;SDS011;10583;49.084;8.646;2023-03-26T07:22:13;1.80;;;1.80;;
20844;SDS011;10583;49.084;8.646;2023-03-26T07:24:45;2.33;;;2.33;;
20844;SDS011;10583;49.084;8.646;2023-03-26T07:27:16;2.47;;;2.47;;
20844;SDS011;10583;49.084;8.646;2023-03-26T07:29:54;2.47;;;2.47;;
20844;SDS011;10583;49.084;8.646;2023-03-26T07:32:26;1.73;;;1.73;;
20844;SDS011;10583;49.084;8.646;2023-03-26T07:35:03;1.73;;;1.73;;
20844;SDS011;10583;49.084;8.646;2023-03-26T07:37:36;2.30;;;2.30;;
20844;SDS011;10583;49.084;8.646;2023-03-26T07:40:15;1.80;;;1.80;;
20844;SDS011;10583;49.084;8.646;2023-03-26T07:42:55;2.00;;;2.00;;
20844;SDS011;10583;49.084;8.646;2023-03-26T07:45:29;2.67;;;2.67;;
20844;SDS011;10583;49.084;8.646;2023-03-26T07:47:58;2.60;;;2.60;;
20844;SDS011;10583;49.084;8.646;2023-03-26T07:50:27;2.57;;;2.57;;
20844;SDS011;10583;49.084;8.646;2023-03-26T07:52:54;2.10;;;2.10;;
20844;SDS011;10583;49.084;8.646;2023-03-26T07:55:22;2.13;;;2.13;;
20844;SDS011;10583;49.084;8.646;2023-03-26T07:57:54;2.50;;;2.50;;
20844;SDS011;10583;49.084;8.646;2023-03-26T08:00:29;2.13;;;2.13;;
20844;SDS011;10583;49.084;8.646;2023-03-26T08:05:52;2.73;;;2.73;;
20844;SDS011;10583;49.084;8.646;2023-03-26T08:08:30;3.37;;;3.37;;
20844;SDS011;10583;49.084;8.646;2023-03-26T08:11:06;3.00;;;3.00;;
20844;SDS011;10583;49.084;8.646;2023-03-26T08:13:42;4.33;;;4.33;;
20844;SDS011;10583;49.084;8.646;2023-03-26T08:16:22;3.20;;;3.20;;
20844;SDS011;10583;49.084;8.646;2023-03-26T08:18:54;2.40;;;2.40;;
20844;SDS011;10583;49.084;8.646;2023-03-26T08:21:30;2.20;;;2.20;;
20844;SDS011;10583;49.084;8.646;2023-03-26T08:24:01;2.20;;;2.20;;
20844;SDS011;10583;49.084;8.646;2023-03-26T08:26:34;2.20;;;2.20;;
20844;SDS011;10583;49.084;8.646;2023-03-26T08:29:09;2.37;;;2.37;;
20844;SDS011;10583;49.084;8.646;2023-03-26T08:31:45;2.80;;;2.80;;
20844;SDS011;10583;49.084;8.646;2023-03-26T08:34:13;2.80;;;2.80;;
20844;SDS011;10583;49.084;8.646;2023-03-26T08:36:41;2.47;;;2.47;;
20844;SDS011;10583;49.084;8.646;2023-03-26T08:39:08;2.40;;;2.40;;
20844;SDS011;10583;49.084;8.646;2023-03-26T08:47:59;2.80;;;2.80;;
20844;SDS011;10583;49.084;8.646;2023-03-26T08:56:57;2.47;;;2.47;;
20844;SDS011;10583;49.084;8.646;2023-03-26T08:59:48;2.60;;;2.60;;
20844;SDS011;10583;49.084;8.646;2023-03-26T09:05:44;2.70;;;2.70;;
20844;SDS011;10583;49.084;8.646;2023-03-26T09:18:02;2.97;;;2.97;;
20844;SDS011;10583;49.084;8.646;2023-03-26T09:20:53;3.00;;;3.00;;
20844;SDS011;10583;49.084;8.646;2023-03-26T09:26:56;2.83;;;2.83;;
20844;SDS011;10583;49.084;8.646;2023-03-26T09:35:46;2.37;;;2.37;;
20844;SDS011;10583;49.084;8.646;2023-03-26T09:38:22;4.07;;;4.07;;
20844;SDS011;10583;49.084;8.646;2023-03-26T09:41:12;6.47;;;6.47;;
20844;SDS011;10583;49.084;8.646;2023-03-26T09:46:40;3.70;;;3.70;;
20844;SDS011;10583;49.084;8.646;2023-03-26T09:49:25;4.70;;;4.70;;
20844;SDS011;10583;49.084;8.646;2023-03-26T09:52:17;5.20;;;5.20;;
20844;SDS011;10583;49.084;8.646;2023-03-26T09:55:06;2.57;;;2.57;;
20844;SDS011;10583;49.084;8.646;2023-03-26T09:57:48;2.93;;;2.93;;
20844;SDS011;10583;49.084;8.646;2023-03-26T10:00:27;5.30;;;5.30;;
20844;SDS011;10583;49.084;8.646;2023-03-26T10:03:08;3.60;;;3.60;;
20844;SDS011;10583;49.084;8.646;2023-03-26T10:05:51;3.33;;;3.33;;
20844;SDS011;10583;49.084;8.646;2023-03-26T10:08:37;2.60;;;2.60;;
20844;SDS011;10583;49.084;8.646;2023-03-26T10:11:12;2.30;;;2.30;;
20844;SDS011;10583;49.084;8.646;2023-03-26T10:13:50;3.20;;;3.20;;
20844;SDS011;10583;49.084;8.646;2023-03-26T10:16:27;2.60;;;2.60;;
20844;SDS011;10583;49.084;8.646;2023-03-26T10:19:07;4.80;;;4.80;;
20844;SDS011;10583;49.084;8.646;2023-03-26T10:21:46;1.80;;;1.80;;
20844;SDS011;10583;49.084;8.646;2023-03-26T10:24:27;7.10;;;7.10;;
20844;SDS011;10583;49.084;8.646;2023-03-26T10:27:12;2.80;;;2.80;;
20844;SDS011;10583;49.084;8.646;2023-03-26T10:33:13;2.00;;;2.00;;
20844;SDS011;10583;49.084;8.646;2023-03-26T10:35:51;1.90;;;1.90;;
20844;SDS011;10583;49.084;8.646;2023-03-26T10:38:30;1.67;;;1.67;;
20844;SDS011;10583;49.084;8.646;2023-03-26T10:41:10;2.03;;;2.03;;
20844;SDS011;10583;49.084;8.646;2023-03-26T10:43:49;2.10;;;2.10;;
20844;SDS011;10583;49.084;8.646;2023-03-26T10:47:02;2.00;;;2.00;;
20844;SDS011;10583;49.084;8.646;2023-03-26T10:50:04;1.60;;;1.60;;
20844;SDS011;10583;49.084;8.646;2023-03-26T10:52:45;1.60;;;1.60;;
20844;SDS011;10583;49.084;8.646;2023-03-26T10:55:18;1.17;;;1.17;;
20844;SDS011;10583;49.084;8.646;2023-03-26T10:57:52;0.97;;;0.97;;
20844;SDS011;10583;49.084;8.646;2023-03-26T11:00:22;1.43;;;1.43;;
20844;SDS011;10583;49.084;8.646;2023-03-26T11:02:56;2.70;;;2.70;;
20844;SDS011;10583;49.084;8.646;2023-03-26T11:05:46;1.30;;;1.30;;
20844;SDS011;10583;49.084;8.646;2023-03-26T11:08:20;0.97;;;0.97;;
20844;SDS011;10583;49.084;8.646;2023-03-26T11:10:55;1.37;;;1.37;;
20844;SDS011;10583;49.084;8.646;2023-03-26T11:13:36;0.83;;;0.83;;
20844;SDS011;10583;49.084;8.646;2023-03-26T11:16:11;1.07;;;1.07;;
20844;SDS011;10583;49.084;8.646;2023-03-26T11:18:43;0.70;;;0.70;;
20844;SDS011;10583;49.084;8.646;2023-03-26T11:21:15;1.00;;;1.00;;
20844;SDS011;10583;49.084;8.646;2023-03-26T11:23:50;0.97;;;0.97;;
20844;SDS011;10583;49.084;8.646;2023-03-26T11:26:28;1.10;;;1.10;;
20844;SDS011;10583;49.084;8.646;2023-03-26T11:29:19;0.93;;;0.93;;
20844;SDS011;10583;49.084;8.646;2023-03-26T11:31:57;0.83;;;0.83;;
20844;SDS011;10583;49.084;8.646;2023-03-26T11:34:30;1.00;;;1.00;;
20844;SDS011;10583;49.084;8.646;2023-03-26T11:37:01;0.80;;;0.80;;
20844;SDS011;10583;49.084;8.646;2023-03-26T11:39:35;1.00;;;1.00;;
20844;SDS011;10583;49.084;8.646;2023-03-26T11:42:13;0.70;;;0.70;;
20844;SDS011;10583;49.084;8.646;2023-03-26T11:44:49;1.00;;;1.00;;
20844;SDS011;10583;49.084;8.646;2023-03-26T11:47:20;1.20;;;1.20;;
20844;SDS011;10583;49.084;8.646;2023-03-26T11:49:52;1.20;;;1.20;;
20844;SDS011;10583;49.084;8.646;2023-03-26T11:52:20;2.17;;;2.17;;
20844;SDS011;10583;49.084;8.646;2023-03-26T11:54:47;1.50;;;1.50;;
20844;SDS011;10583;49.084;8.646;2023-03-26T11:57:14;1.00;;;1.00;;
20844;SDS011;10583;49.084;8.646;2023-03-26T11:59:47;1.00;;;1.00;;
20844;SDS011;10583;49.084;8.646;2023-03-26T12:02:23;0.97;;;0.97;;
20844;SDS011;10583;49.084;8.646;2023-03-26T12:07:46;0.87;;;0.87;;
20844;SDS011;10583;49.084;8.646;2023-03-26T12:10:22;0.67;;;0.67;;
20844;SDS011;10583;49.084;8.646;2023-03-26T12:12:52;0.70;;;0.70;;
20844;SDS011;10583;49.084;8.646;2023-03-26T12:15:22;0.80;;;0.80;;
20844;SDS011;10583;49.084;8.646;2023-03-26T12:17:51;0.90;;;0.90;;
20844;SDS011;10583;49.084;8.646;2023-03-26T12:20:29;1.07;;;1.07;;
20844;SDS011;10583;49.084;8.646;2023-03-26T12:23:00;1.10;;;1.10;;
20844;SDS011;10583;49.084;8.646;2023-03-26T12:25:28;1.13;;;1.13;;
20844;SDS011;10583;49.084;8.646;2023-03-26T12:27:56;0.97;;;0.97;;
20844;SDS011;10583;49.084;8.646;2023-03-26T12:30:28;1.57;;;1.57;;
20844;SDS011;10583;49.084;8.646;2023-03-26T12:32:58;1.20;;;1.20;;
20844;SDS011;10583;49.084;8.646;2023-03-26T12:35:28;1.23;;;1.23;;
20844;SDS011;10583;49.084;8.646;2023-03-26T12:38:12;1.23;;;1.23;;
20844;SDS011;10583;49.084;8.646;2023-03-26T12:40:40;1.30;;;1.30;;
20844;SDS011;10583;49.084;8.646;2023-03-26T12:43:19;1.33;;;1.33;;
20844;SDS011;10583;49.084;8.646;2023-03-26T12:45:49;1.33;;;1.33;;
20844;SDS011;10583;49.084;8.646;2023-03-26T12:48:19;1.37;;;1.37;;
20844;SDS011;10583;49.084;8.646;2023-03-26T12:50:52;1.60;;;1.60;;
20844;SDS011;10583;49.084;8.646;2023-03-26T12:56:25;1.10;;;1.10;;
20844;SDS011;10583;49.084;8.646;2023-03-26T12:59:03;1.40;;;1.40;;
20844;SDS011;10583;49.084;8.646;2023-03-26T13:01:57;1.10;;;1.10;;
20844;SDS011;10583;49.084;8.646;2023-03-26T13:04:36;1.37;;;1.37;;
20844;SDS011;10583;49.084;8.646;2023-03-26T13:07:15;1.33;;;1.33;;
20844;SDS011;10583;49.084;8.646;2023-03-26T13:09:53;1.00;;;1.00;;
20844;SDS011;10583;49.084;8.646;2023-03-26T13:12:42;1.97;;;1.97;;
20844;SDS011;10583;49.084;8.646;2023-03-26T13:15:19;1.30;;;1.30;;
20844;SDS011;10583;49.084;8.646;2023-03-26T13:18:04;1.50;;;1.50;;
20844;SDS011;10583;49.084;8.646;2023-03-26T13:20:46;1.20;;;1.20;;
20844;SDS011;10583;49.084;8.646;2023-03-26T13:23:17;1.40;;;1.40;;
20844;SDS011;10583;49.084;8.646;2023-03-26T13:25:51;1.20;;;1.20;;
20844;SDS011;10583;49.084;8.646;2023-03-26T13:28:28;1.00;;;1.00;;
20844;SDS011;10583;49.084;8.646;2023-03-26T13:31:06;1.23;;;1.23;;
20844;SDS011;10583;49.084;8.646;2023-03-26T13:33:44;1.20;;;1.20;;
20844;SDS011;10583;49.084;8.646;2023-03-26T13:36:19;1.03;;;1.03;;
20844;SDS011;10583;49.084;8.646;2023-03-26T13:38:55;0.90;;;0.90;;
20844;SDS011;10583;49.084;8.646;2023-03-26T13:41:32;1.10;;;1.10;;
20844;SDS011;10583;49.084;8.646;2023-03-26T13:44:11;1.00;;;1.00;;
20844;SDS011;10583;49.084;8.646;2023-03-26T13:46:48;1.23;;;1.23;;
20844;SDS011;10583;49.084;8.646;2023-03-26T13:49:23;1.30;;;1.30;;
20844;SDS011;10583;49.084;8.646;2023-03-26T13:52:01;0.90;;;0.90;;
20844;SDS011;10583;49.084;8.646;2023-03-26T13:54:33;0.80;;;0.80;;
20844;SDS011;10583;49.084;8.646;2023-03-26T13:57:05;1.00;;;1.00;;
20844;SDS011;10583;49.084;8.646;2023-03-26T13:59:37;1.00;;;1.00;;
20844;SDS011;10583;49.084;8.646;2023-03-26T14:02:09;1.13;;;1.13;;
20844;SDS011;10583;49.084;8.646;2023-03-26T14:04:44;1.00;;;1.00;;
20844;SDS011;10583;49.084;8.646;2023-03-26T14:07:17;1.00;;;1.00;;
20844;SDS011;10583;49.084;8.646;2023-03-26T14:09:49;1.03;;;1.03;;
20844;SDS011;10583;49.084;8.646;2023-03-26T14:12:23;0.93;;;0.93;;
20844;SDS011;10583;49.084;8.646;2023-03-26T14:15:02;1.00;;;1.00;;
20844;SDS011;10583;49.084;8.646;2023-03-26T14:17:32;1.30;;;1.30;;
20844;SDS011;10583;49.084;8.646;2023-03-26T14:23:05;1.60;;;1.60;;
20844;SDS011;10583;49.084;8.646;2023-03-26T14:25:45;1.87;;;1.87;;
20844;SDS011;10583;49.084;8.646;2023-03-26T14:28:35;1.10;;;1.10;;
20844;SDS011;10583;49.084;8.646;2023-03-26T14:31:22;1.10;;;1.10;;
20844;SDS011;10583;49.084;8.646;2023-03-26T14:34:11;1.30;;;1.30;;
20844;SDS011;10583;49.084;8.646;2023-03-26T14:36:56;1.33;;;1.33;;
20844;SDS011;10583;49.084;8.646;2023-03-26T14:39:56;1.13;;;1.13;;
20844;SDS011;10583;49.084;8.646;2023-03-26T14:42:41;0.93;;;0.93;;
20844;SDS011;10583;49.084;8.646;2023-03-26T14:45:21;1.00;;;1.00;;
20844;SDS011;10583;49.084;8.646;2023-03-26T14:48:08;1.30;;;1.30;;
20844;SDS011;10583;49.084;8.646;2023-03-26T14:51:00;1.00;;;1.00;;
20844;SDS011;10583;49.084;8.646;2023-03-26T14:53:40;0.90;;;0.90;;
20844;SDS011;10583;49.084;8.646;2023-03-26T14:56:13;1.10;;;1.10;;
20844;SDS011;10583;49.084;8.646;2023-03-26T14:59:07;1.63;;;1.63;;
20844;SDS011;10583;49.084;8.646;2023-03-26T15:05:28;0.87;;;0.87;;
20844;SDS011;10583;49.084;8.646;2023-03-26T15:08:13;0.97;;;0.97;;
20844;SDS011;10583;49.084;8.646;2023-03-26T15:11:11;0.80;;;0.80;;
20844;SDS011;10583;49.084;8.646;2023-03-26T15:13:48;0.80;;;0.80;;
20844;SDS011;10583;49.084;8.646;2023-03-26T15:19:56;0.70;;;0.70;;
20844;SDS011;10583;49.084;8.646;2023-03-26T15:26:03;0.50;;;0.50;;
20844;SDS011;10583;49.084;8.646;2023-03-26T15:31:56;0.70;;;0.70;;
20844;SDS011;10583;49.084;8.646;2023-03-26T15:34:45;0.30;;;0.30;;
20844;SDS011;10583;49.084;8.646;2023-03-26T15:37:50;0.60;;;0.60;;
20844;SDS011;10583;49.084;8.646;2023-03-26T15:43:27;0.70;;;0.70;;
20844;SDS011;10583;49.084;8.646;2023-03-26T15:46:23;0.50;;;0.50;;
20844;SDS011;10583;49.084;8.646;2023-03-26T15:48:59;0.70;;;0.70;;
20844;SDS011;10583;49.084;8.646;2023-03-26T15:51:42;0.67;;;0.67;;
20844;SDS011;10583;49.084;8.646;2023-03-26T15:54:19;0.70;;;0.70;;
20844;SDS011;10583;49.084;8.646;2023-03-26T15:56:55;0.50;;;0.50;;
20844;SDS011;10583;49.084;8.646;2023-03-26T15:59:38;0.60;;;0.60;;
20844;SDS011;10583;49.084;8.646;2023-03-26T16:02:15;0.70;;;0.70;;
20844;SDS011;10583;49.084;8.646;2023-03-26T16:04:52;0.57;;;0.57;;
20844;SDS011;10583;49.084;8.646;2023-03-26T16:07:25;0.60;;;0.60;;
20844;SDS011;10583;49.084;8.646;2023-03-26T16:10:08;0.80;;;0.80;;
20844;SDS011;10583;49.084;8.646;2023-03-26T16:12:45;0.80;;;0.80;;
20844;SDS011;10583;49.084;8.646;2023-03-26T16:15:24;0.60;;;0.60;;
20844;SDS011;10583;49.084;8.646;2023-03-26T16:18:15;0.70;;;0.70;;
20844;SDS011;10583;49.084;8.646;2023-03-26T16:24:20;0.60;;;0.60;;
20844;SDS011;10583;49.084;8.646;2023-03-26T16:30:06;0.70;;;0.70;;
20844;SDS011;10583;49.084;8.646;2023-03-26T16:32:41;0.57;;;0.57;;
20844;SDS011;10583;49.084;8.646;2023-03-26T16:35:23;0.70;;;0.70;;
20844;SDS011;10583;49.084;8.646;2023-03-26T16:38:04;0.50;;;0.50;;
20844;SDS011;10583;49.084;8.646;2023-03-26T16:40:35;0.70;;;0.70;;
20844;SDS011;10583;49.084;8.646;2023-03-26T16:43:29;0.50;;;0.50;;